Time;durP1;ratioP1;P1;durP2;ratioP2;P2;SDS_P1;SDS_P2;PMS_P1;PMS_P2;Temp;Humidity;BMP_temperature;BMP_pressure;BME280_temperature;BME280_humidity;BME280_pressure;Samples;Min_cycle;Max_cycle;Signal;HPM_P1;HPM_P2
2022/08/26 00:00:49;;;;;;;4.03;3.83;;;;;;;21.41;89.31;95222.41;4360432;32;20234;-60
2022/08/26 00:03:16;;;;;;;2.50;2.40;;;;;;;21.41;89.27;95219.72;4366991;32;20300;-60
2022/08/26 00:05:42;;;;;;;3.00;2.90;;;;;;;21.34;89.81;95216.94;4373653;32;20189;-59
2022/08/26 00:08:09;;;;;;;8.03;4.40;;;;;;;21.32;89.87;95219.22;4363676;32;20290;-60
2022/08/26 00:10:35;;;;;;;3.63;3.33;;;;;;;21.25;90.25;95217.19;4367439;32;20185;-60
2022/08/26 00:13:00;;;;;;;5.63;3.47;;;;;;;21.15;90.79;95215.88;4355077;32;20207;-61
2022/08/26 00:15:26;;;;;;;3.07;2.93;;;;;;;21.17;90.78;95215.53;4361737;32;20204;-59
2022/08/26 00:17:52;;;;;;;3.07;2.87;;;;;;;21.11;90.93;95208.88;4345658;32;20185;-60
2022/08/26 00:20:23;;;;;;;2.93;2.73;;;;;;;21.19;90.52;95214.03;4345974;32;20218;-60
2022/08/26 00:22:48;;;;;;;3.17;3.07;;;;;;;21.11;90.96;95208.88;4365239;32;20184;-60
2022/08/26 00:25:14;;;;;;;10.07;3.30;;;;;;;21.04;91.40;95209.53;4360067;32;20251;-59
2022/08/26 00:27:40;;;;;;;3.10;3.00;;;;;;;21.01;91.65;95204.84;4359107;32;20192;-60
2022/08/26 00:30:09;;;;;;;3.83;3.63;;;;;;;21.02;91.57;95216.44;4360392;32;20193;-60
2022/08/26 00:32:34;;;;;;;3.13;3.03;;;;;;;21.03;91.47;95210.66;4352398;32;20227;-60
2022/08/26 00:35:00;;;;;;;4.23;3.77;;;;;;;21.02;91.57;95217.22;4367890;32;20208;-64
2022/08/26 00:37:26;;;;;;;3.10;2.90;;;;;;;21.08;91.20;95215.78;4362019;32;20197;-59
2022/08/26 00:39:52;;;;;;;4.00;3.80;;;;;;;21.03;91.22;95215.28;4358459;32;20193;-59
2022/08/26 00:42:17;;;;;;;3.50;3.20;;;;;;;20.99;91.58;95217.19;4374259;32;20200;-59
2022/08/26 00:44:43;;;;;;;6.40;5.07;;;;;;;20.98;91.66;95211.00;4363294;32;20239;-59
2022/08/26 00:47:16;;;;;;;3.23;3.00;;;;;;;20.92;92.02;95215.13;4347380;32;20201;-60
2022/08/26 00:49:46;;;;;;;5.77;4.33;;;;;;;20.77;92.77;95205.28;4359897;32;20192;-60
2022/08/26 00:52:16;;;;;;;3.23;3.13;;;;;;;20.90;92.32;95212.03;4357713;32;20255;-59
2022/08/26 00:54:52;;;;;;;3.63;3.43;;;;;;;20.92;91.84;95207.81;4344810;32;20231;-60
2022/08/26 00:57:20;;;;;;;2.97;2.87;;;;;;;20.85;92.39;95212.31;4357358;32;20196;-60
2022/08/26 00:59:53;;;;;;;3.23;2.97;;;;;;;20.90;92.16;95209.31;4357515;32;20201;-60
2022/08/26 01:02:19;;;;;;;3.10;3.00;;;;;;;20.92;92.20;95207.06;4373491;32;20241;-59
2022/08/26 01:04:46;;;;;;;4.07;3.80;;;;;;;20.95;91.84;95209.03;4356926;32;20236;-59
2022/08/26 01:07:11;;;;;;;2.97;2.83;;;;;;;20.90;92.04;95212.03;4361757;32;20192;-60
2022/08/26 01:09:37;;;;;;;4.20;3.90;;;;;;;20.92;91.99;95212.44;4366545;32;20253;-60
2022/08/26 01:12:03;;;;;;;3.20;3.03;;;;;;;20.88;92.21;95206.22;4359331;32;20211;-58
2022/08/26 01:14:32;;;;;;;4.30;3.93;;;;;;;20.85;92.38;95215.03;4374631;32;20205;-60
2022/08/26 01:17:01;;;;;;;3.30;3.17;;;;;;;20.86;92.18;95211.19;4360348;32;20193;-60
2022/08/26 01:20:00;;;;;;;3.27;3.17;;;;;;;20.86;92.23;95211.97;4346952;32;20235;-60
2022/08/26 01:22:31;;;;;;;3.57;3.37;;;;;;;20.78;92.57;95204.13;4359053;32;20234;-60
2022/08/26 01:25:01;;;;;;;6.10;4.00;;;;;;;20.81;92.50;95206.87;4363703;32;20228;-59
2022/08/26 01:27:30;;;;;;;4.23;3.67;;;;;;;20.82;92.54;95208.44;4352163;32;20189;-59
2022/08/26 01:29:57;;;;;;;4.43;4.07;;;;;;;20.69;93.17;95208.97;4370000;32;20202;-60
2022/08/26 01:32:24;;;;;;;3.27;3.17;;;;;;;20.65;93.24;95202.75;4360051;32;20211;-59
2022/08/26 01:34:51;;;;;;;3.90;3.70;;;;;;;20.69;93.06;95211.69;4343124;32;20190;-60
2022/08/26 01:37:24;;;;;;;3.57;2.97;;;;;;;20.69;93.01;95211.69;4356871;32;20196;-58
2022/08/26 01:39:55;;;;;;;4.23;3.97;;;;;;;20.62;93.21;95215.03;4364428;32;21554;-59
2022/08/26 01:42:23;;;;;;;3.37;3.17;;;;;;;20.74;92.62;95211.38;4364787;32;20318;-58
2022/08/26 01:44:58;;;;;;;4.30;4.00;;;;;;;20.72;92.62;95209.03;4369538;32;20231;-58
2022/08/26 01:47:26;;;;;;;3.43;3.23;;;;;;;20.72;92.73;95209.03;4360620;32;20203;-58
2022/08/26 01:49:55;;;;;;;3.70;3.43;;;;;;;20.73;92.67;95207.91;4358754;32;20208;-58
2022/08/26 01:52:25;;;;;;;4.60;4.20;;;;;;;20.65;93.18;95202.75;4359446;32;20284;-58
2022/08/26 01:54:52;;;;;;;3.87;3.67;;;;;;;20.68;92.87;95200.13;4363307;32;20213;-58
2022/08/26 01:57:19;;;;;;;5.87;5.33;;;;;;;20.75;92.65;95212.94;4351121;32;20208;-58
2022/08/26 01:59:45;;;;;;;4.77;3.57;;;;;;;20.68;92.95;95210.91;4369826;32;20232;-59
2022/08/26 02:02:11;;;;;;;6.10;4.17;;;;;;;20.58;93.44;95219.56;4345006;32;20181;-59
2022/08/26 02:04:47;;;;;;;3.47;3.27;;;;;;;20.54;93.73;95216.84;4373720;32;20197;-59
2022/08/26 02:07:14;;;;;;;4.73;4.27;;;;;;;20.54;93.88;95219.53;4361706;32;20193;-59
2022/08/26 02:09:41;;;;;;;5.93;4.00;;;;;;;20.59;93.58;95218.44;4377219;32;20193;-59
2022/08/26 02:12:09;;;;;;;3.97;3.80;;;;;;;20.63;93.28;95213.87;4365054;32;20204;-59
2022/08/26 02:14:41;;;;;;;3.40;3.20;;;;;;;20.66;93.00;95209.69;4367481;32;20266;-59
2022/08/26 02:17:08;;;;;;;4.07;3.87;;;;;;;20.66;92.92;95223.97;4356370;32;20207;-59
2022/08/26 02:19:38;;;;;;;4.10;3.67;;;;;;;20.67;92.76;95216.66;4357008;32;20229;-59
2022/08/26 02:22:06;;;;;;;3.90;3.00;;;;;;;20.57;93.19;95218.81;4355959;32;20226;-59
2022/08/26 02:24:50;;;;;;;5.43;5.13;;;;;;;20.58;93.22;95211.50;4356380;32;20204;-60
2022/08/26 02:27:18;;;;;;;4.27;3.93;;;;;;;20.52;93.67;95213.72;4364245;32;20215;-59
2022/08/26 02:29:48;;;;;;;4.03;3.83;;;;;;;20.57;93.12;95207.25;4356298;32;20197;-59
2022/08/26 02:32:14;;;;;;;3.43;3.20;;;;;;;20.51;93.30;95214.09;4342730;32;20248;-59
2022/08/26 02:34:39;;;;;;;4.57;4.37;;;;;;;20.54;93.01;95207.97;4356125;32;20204;-59
2022/08/26 02:37:08;;;;;;;4.07;3.87;;;;;;;20.53;93.15;95217.97;4355862;32;20208;-59
2022/08/26 02:39:35;;;;;;;6.93;5.23;;;;;;;20.45;93.51;95210.12;4358413;32;20194;-59
2022/08/26 02:42:02;;;;;;;5.27;4.00;;;;;;;20.41;93.63;95212.75;4373585;32;20203;-59
2022/08/26 02:44:28;;;;;;;4.50;4.20;;;;;;;20.50;93.25;95207.91;4372563;32;20238;-59
2022/08/26 02:46:53;;;;;;;4.33;4.07;;;;;;;20.46;93.50;95212.47;4345605;32;20189;-59
2022/08/26 02:49:20;;;;;;;3.73;3.53;;;;;;;20.41;93.75;95207.34;4357137;32;20196;-59
2022/08/26 02:51:48;;;;;;;4.20;3.80;;;;;;;20.40;93.77;95213.87;4365808;32;20236;-59
2022/08/26 02:54:15;;;;;;;4.83;4.53;;;;;;;20.35;93.90;95206.09;4356258;32;20216;-59
2022/08/26 02:56:42;;;;;;;3.40;3.20;;;;;;;20.34;94.06;95209.91;4360582;32;20192;-59
2022/08/26 02:59:07;;;;;;;3.40;3.20;;;;;;;20.31;94.12;95205.22;4366417;32;20231;-59
2022/08/26 03:01:34;;;;;;;4.00;3.80;;;;;;;20.33;93.95;95202.97;4348592;32;20197;-59
2022/08/26 03:04:02;;;;;;;2.80;2.70;;;;;;;20.37;93.52;95206.50;4376053;32;20181;-59
2022/08/26 03:06:28;;;;;;;3.43;3.23;;;;;;;20.37;93.60;95198.41;4374587;32;20207;-59
2022/08/26 03:08:54;;;;;;;3.27;3.17;;;;;;;20.38;93.56;95204.59;4361440;32;20245;-59
2022/08/26 03:11:21;;;;;;;7.90;4.97;;;;;;;20.44;92.88;95203.94;4351997;32;20189;-59
2022/08/26 03:13:46;;;;;;;4.37;4.00;;;;;;;20.40;93.03;95202.31;4356324;32;20257;-60
2022/08/26 03:16:12;;;;;;;4.67;4.37;;;;;;;20.40;92.78;95197.72;4360354;32;20213;-60
2022/08/26 03:18:37;;;;;;;3.43;3.27;;;;;;;20.34;93.08;95206.44;4360421;32;20212;-60
2022/08/26 03:21:09;;;;;;;3.37;3.17;;;;;;;20.25;93.42;95201.28;4346451;32;20224;-59
2022/08/26 03:23:35;;;;;;;3.33;3.03;;;;;;;20.21;93.52;95200.41;4360382;32;20263;-59
2022/08/26 03:26:03;;;;;;;3.63;3.43;;;;;;;20.21;93.23;95195.03;4369522;32;20208;-61
2022/08/26 03:28:29;;;;;;;3.60;3.40;;;;;;;20.13;93.26;95206.84;4359769;32;20197;-59
2022/08/26 03:30:56;;;;;;;2.73;2.63;;;;;;;20.12;93.12;95197.97;4347282;32;20207;-60
2022/08/26 03:33:22;;;;;;;3.97;3.77;;;;;;;20.03;93.35;95202.00;4375686;32;20204;-60
2022/08/26 03:35:47;;;;;;;4.83;4.40;;;;;;;20.04;93.02;95200.88;4353290;32;20192;-59
2022/08/26 03:38:13;;;;;;;3.27;2.97;;;;;;;20.01;92.96;95193.50;4363599;32;20208;-59
2022/08/26 03:40:41;;;;;;;3.43;3.23;;;;;;;19.92;93.03;95198.34;4365768;32;20207;-59
2022/08/26 03:43:08;;;;;;;3.43;3.23;;;;;;;20.05;92.25;95191.66;4346330;32;20197;-60
2022/08/26 03:45:35;;;;;;;3.70;3.40;;;;;;;20.01;92.23;95196.19;4347002;32;20247;-60
2022/08/26 03:48:01;;;;;;;3.40;3.20;;;;;;;19.89;92.19;95200.63;4358829;32;20197;-62
2022/08/26 03:50:27;;;;;;;2.23;2.13;;;;;;;19.93;92.06;95198.00;4365406;32;20184;-60
2022/08/26 03:52:54;;;;;;;3.37;3.23;;;;;;;19.99;91.46;95190.38;4353203;32;20207;-59
2022/08/26 03:55:23;;;;;;;2.93;2.83;;;;;;;19.89;91.65;95194.44;4372073;32;20263;-60
2022/08/26 03:57:48;;;;;;;3.20;3.07;;;;;;;19.81;91.88;95192.75;4359740;32;20240;-59
2022/08/26 04:00:15;;;;;;;2.40;2.30;;;;;;;19.89;91.39;95192.53;4357703;32;20211;-59
2022/08/26 04:02:45;;;;;;;3.00;2.80;;;;;;;19.98;90.96;95192.28;4360287;32;20192;-59
2022/08/26 04:05:13;;;;;;;3.43;2.80;;;;;;;20.00;90.46;95189.25;4374150;32;20203;-60
2022/08/26 04:07:41;;;;;;;11.63;3.30;;;;;;;19.96;90.65;95191.87;4359713;32;20185;-59
2022/08/26 04:10:07;;;;;;;3.30;3.10;;;;;;;19.95;90.62;95192.25;4371304;32;20193;-59
2022/08/26 04:12:35;;;;;;;3.13;2.93;;;;;;;19.98;90.58;95188.81;4365670;32;20201;-60
2022/08/26 04:15:00;;;;;;;3.57;2.97;;;;;;;19.92;90.89;95187.56;4370774;32;20310;-63
2022/08/26 04:17:26;;;;;;;3.17;2.97;;;;;;;19.80;91.44;95191.19;4367030;32;20204;-60
2022/08/26 04:19:54;;;;;;;2.27;2.17;;;;;;;19.80;91.54;95189.28;4363547;32;20193;-59
2022/08/26 04:22:19;;;;;;;3.47;2.67;;;;;;;19.83;91.13;95190.47;4348788;32;20246;-60
2022/08/26 04:24:45;;;;;;;2.20;2.10;;;;;;;19.74;91.57;95188.00;4368707;32;20232;-60
2022/08/26 04:27:11;;;;;;;2.90;2.80;;;;;;;19.80;91.58;95191.19;4347153;32;20242;-60
2022/08/26 04:29:40;;;;;;;2.83;2.63;;;;;;;19.89;90.94;95192.53;4356813;32;20207;-60
2022/08/26 04:32:05;;;;;;;3.70;3.40;;;;;;;19.89;90.79;95195.22;4360908;32;20228;-60
2022/08/26 04:34:31;;;;;;;3.27;3.07;;;;;;;19.78;91.49;95196.12;4360649;32;20204;-60
2022/08/26 04:36:57;;;;;;;2.97;2.80;;;;;;;19.86;91.03;95192.47;4374920;32;20219;-60
2022/08/26 04:39:22;;;;;;;5.40;3.67;;;;;;;19.87;91.05;95189.41;4359414;32;20195;-60
2022/08/26 04:41:49;;;;;;;2.50;2.40;;;;;;;19.85;91.13;95194.38;4356306;32;20197;-59
2022/08/26 04:44:16;;;;;;;2.90;2.70;;;;;;;19.83;91.16;95190.47;4357601;32;20202;-59
2022/08/26 04:46:41;;;;;;;5.60;3.70;;;;;;;19.80;91.23;95191.19;4372008;32;20189;-60
2022/08/26 04:49:07;;;;;;;3.30;3.10;;;;;;;19.78;91.42;95188.06;4360029;32;20208;-60
2022/08/26 04:51:36;;;;;;;3.97;3.67;;;;;;;19.85;91.11;95189.00;4365304;32;20216;-60
2022/08/26 04:54:05;;;;;;;2.53;2.43;;;;;;;19.88;90.83;95182.91;4359548;32;20205;-60
2022/08/26 04:56:34;;;;;;;6.60;3.30;;;;;;;19.86;90.91;95187.84;4345424;32;20185;-60
2022/08/26 04:59:02;;;;;;;3.67;3.47;;;;;;;19.82;91.24;95189.69;4352977;32;20180;-59
2022/08/26 05:01:28;;;;;;;2.87;2.67;;;;;;;19.85;91.06;95189.00;4363337;32;20203;-59
2022/08/26 05:03:54;;;;;;;3.20;3.00;;;;;;;19.88;91.21;95185.59;4355164;32;20259;-60
2022/08/26 05:06:19;;;;;;;5.33;2.90;;;;;;;19.95;90.95;95187.66;4368967;32;20189;-60
2022/08/26 05:08:45;;;;;;;3.10;2.90;;;;;;;19.96;90.77;95205.34;4373519;32;20255;-59
2022/08/26 05:11:10;;;;;;;3.60;3.20;;;;;;;20.00;90.45;95200.81;4372136;32;20193;-60
2022/08/26 05:13:37;;;;;;;2.87;2.63;;;;;;;19.98;90.63;95204.97;4360408;32;20250;-60
2022/08/26 05:16:09;;;;;;;2.97;2.83;;;;;;;20.06;90.05;95209.38;4364640;32;20185;-60
2022/08/26 05:18:36;;;;;;;2.97;2.83;;;;;;;20.05;89.80;95205.91;4366400;32;20242;-60
2022/08/26 05:21:06;;;;;;;5.17;3.40;;;;;;;20.03;90.04;95216.25;4367195;32;20238;-60
2022/08/26 05:23:34;;;;;;;3.90;3.60;;;;;;;19.95;90.21;95221.87;4357931;32;20205;-60
2022/08/26 05:26:00;;;;;;;3.03;2.87;;;;;;;19.73;90.93;95224.16;4374325;32;20193;-59
2022/08/26 05:28:27;;;;;;;2.93;2.73;;;;;;;19.74;91.17;95217.62;4360367;32;20192;-59
2022/08/26 05:30:54;;;;;;;3.53;3.33;;;;;;;19.74;90.72;95222.22;4358935;32;20189;-58
2022/08/26 05:33:20;;;;;;;3.13;2.63;;;;;;;19.78;90.70;95221.16;4350757;32;20177;-59
2022/08/26 05:35:45;;;;;;;7.77;3.77;;;;;;;19.76;90.79;95220.72;4357016;32;20255;-59
2022/08/26 05:38:17;;;;;;;2.13;2.03;;;;;;;19.82;90.83;95221.22;4345204;32;20185;-60
2022/08/26 05:40:49;;;;;;;3.90;3.47;;;;;;;19.81;91.02;95219.66;4373404;32;20196;-59
2022/08/26 05:43:15;;;;;;;3.07;2.80;;;;;;;19.89;90.89;95216.78;4361058;32;20193;-59
2022/08/26 05:45:44;;;;;;;3.53;3.43;;;;;;;19.99;90.34;95220.00;4357846;32;20213;-59
2022/08/26 05:48:10;;;;;;;2.60;2.50;;;;;;;19.92;90.82;95220.66;4348143;32;20206;-59
2022/08/26 05:50:37;;;;;;;3.00;2.80;;;;;;;19.97;91.08;95228.44;4371086;32;20251;-60
2022/08/26 05:53:03;;;;;;;2.97;2.43;;;;;;;19.97;91.28;95227.66;4358672;32;20197;-60
2022/08/26 05:55:28;;;;;;;3.83;3.63;;;;;;;19.87;91.55;95224.41;4371102;32;20204;-59
2022/08/26 05:57:54;;;;;;;4.57;2.20;;;;;;;19.99;91.26;95233.47;4364184;32;20192;-59
2022/08/26 06:00:20;;;;;;;3.80;3.57;;;;;;;19.97;91.04;95222.28;4351522;32;20261;-60
2022/08/26 06:02:46;;;;;;;3.53;3.37;;;;;;;19.94;90.97;95228.41;4356022;32;20240;-59
2022/08/26 06:05:11;;;;;;;2.20;1.93;;;;;;;19.97;90.99;95227.66;4358075;32;20277;-59
2022/08/26 06:10:20;;;;;;;3.33;3.13;;;;;;;20.11;90.25;95236.03;4370183;32;21488;-59
2022/08/26 06:12:46;;;;;;;3.67;3.47;;;;;;;20.01;90.97;95233.91;4371869;32;20188;-59
2022/08/26 06:15:11;;;;;;;3.07;2.97;;;;;;;20.12;90.84;95229.50;4367692;32;20193;-59
2022/08/26 06:17:36;;;;;;;3.10;2.90;;;;;;;20.12;90.35;95234.91;4359244;32;20189;-59
2022/08/26 06:20:03;;;;;;;3.60;3.30;;;;;;;20.17;90.05;95243.47;4372803;32;20185;-59
2022/08/26 06:27:55;;;;;;;2.77;2.67;;;;;;;20.46;89.34;95236.72;4363915;32;20244;-59
2022/08/26 06:30:21;;;;;;;2.27;2.17;;;;;;;20.49;88.76;95233.31;4359352;32;20197;-59
2022/08/26 06:32:46;;;;;;;3.33;3.17;;;;;;;20.48;88.96;95237.13;4372076;32;20192;-59
2022/08/26 06:35:12;;;;;;;3.00;2.90;;;;;;;20.47;88.36;95229.41;4371683;32;20246;-59
2022/08/26 06:37:37;;;;;;;2.23;2.13;;;;;;;20.46;88.85;95234.00;4358661;32;20211;-59
2022/08/26 06:40:04;;;;;;;2.83;2.20;;;;;;;20.62;87.50;95230.44;4370605;32;20203;-59
2022/08/26 06:42:29;;;;;;;4.03;3.73;;;;;;;20.62;86.64;95227.72;4361121;32;20260;-59
2022/08/26 06:44:55;;;;;;;2.07;2.00;;;;;;;20.63;86.21;95234.69;4351539;32;20192;-58
2022/08/26 06:47:20;;;;;;;3.47;3.17;;;;;;;20.76;85.05;95233.38;4362548;32;20279;-59
2022/08/26 06:49:46;;;;;;;2.63;2.53;;;;;;;20.82;85.06;95234.63;4352132;32;20204;-59
2022/08/26 06:52:13;;;;;;;2.90;2.80;;;;;;;20.97;84.64;95231.03;4367250;32;20192;-59
2022/08/26 06:54:41;;;;;;;2.33;2.23;;;;;;;21.03;83.86;95229.56;4361889;32;20208;-59
2022/08/26 06:57:07;;;;;;;3.53;2.97;;;;;;;21.04;84.84;95231.13;4353145;32;20214;-59
2022/08/26 06:59:33;;;;;;;2.50;2.40;;;;;;;20.95;85.13;95235.22;4365743;32;20205;-59
2022/08/26 07:01:58;;;;;;;3.13;2.93;;;;;;;21.07;84.64;95230.41;4364575;32;20226;-63
2022/08/26 07:04:23;;;;;;;2.70;2.50;;;;;;;21.08;84.56;95231.97;4371362;32;20286;-59
2022/08/26 07:06:51;;;;;;;2.47;2.37;;;;;;;21.10;83.82;95229.69;4372871;32;20199;-59
2022/08/26 07:09:16;;;;;;;2.30;1.93;;;;;;;21.12;82.74;95229.31;4349742;32;20223;-59
2022/08/26 07:11:43;;;;;;;2.50;2.30;;;;;;;21.15;82.30;95237.47;4364264;32;20197;-59
2022/08/26 07:14:09;;;;;;;2.40;2.30;;;;;;;21.25;83.00;95239.56;4361386;32;20204;-59
2022/08/26 07:16:34;;;;;;;2.47;2.37;;;;;;;21.33;82.20;95236.97;4358854;32;20211;-59
2022/08/26 07:19:01;;;;;;;3.27;3.17;;;;;;;21.36;82.73;95236.25;4359614;32;20193;-59
2022/08/26 07:21:27;;;;;;;2.07;1.93;;;;;;;21.45;78.78;95239.44;4361309;32;20268;-59
2022/08/26 07:23:53;;;;;;;2.53;2.43;;;;;;;21.55;78.64;95238.84;4369612;32;20217;-59
2022/08/26 07:26:24;;;;;;;1.93;1.90;;;;;;;21.55;79.28;95236.91;4369424;32;21294;-59
2022/08/26 07:28:51;;;;;;;2.23;2.13;;;;;;;21.64;76.29;95244.72;4366368;32;20207;-59
2022/08/26 07:31:19;;;;;;;2.50;2.30;;;;;;;21.65;77.69;95240.09;4347755;32;20185;-58
2022/08/26 07:33:45;;;;;;;2.30;2.20;;;;;;;21.65;77.93;95243.59;4369003;32;20223;-59
2022/08/26 07:36:12;;;;;;;2.40;2.30;;;;;;;21.72;77.68;95243.69;4363587;32;20197;-59
2022/08/26 07:38:38;;;;;;;2.07;1.93;;;;;;;21.74;77.48;95240.62;4354968;32;20228;-59
2022/08/26 07:41:07;;;;;;;1.63;1.63;;;;;;;21.77;76.10;95245.28;4356691;32;20223;-59
2022/08/26 07:43:34;;;;;;;3.00;2.33;;;;;;;21.82;75.44;95247.69;4368069;32;20230;-59
2022/08/26 07:46:00;;;;;;;6.03;2.07;;;;;;;21.89;75.79;95248.53;4360691;32;20185;-59
2022/08/26 07:48:25;;;;;;;2.43;2.33;;;;;;;21.83;76.47;95249.22;4353832;32;20192;-59
2022/08/26 07:50:52;;;;;;;1.93;1.93;;;;;;;21.87;76.64;95247.34;4350567;32;20205;-59
2022/08/26 07:53:18;;;;;;;2.53;2.43;;;;;;;21.88;76.01;95246.97;4360281;32;20201;-59
2022/08/26 07:55:44;;;;;;;3.30;3.10;;;;;;;21.95;75.76;95247.06;4369776;32;20209;-59
2022/08/26 07:58:09;;;;;;;4.60;3.10;;;;;;;21.98;75.57;95250.19;4345854;32;20196;-59
2022/08/26 08:00:34;;;;;;;3.57;3.27;;;;;;;21.91;77.33;95245.47;4373741;32;20212;-59
2022/08/26 08:03:02;;;;;;;3.20;1.73;;;;;;;21.95;76.61;95251.69;4359409;32;20181;-59
2022/08/26 08:05:31;;;;;;;2.43;2.33;;;;;;;21.93;77.17;95259.38;4348409;32;20184;-59
2022/08/26 08:07:57;;;;;;;1.97;1.87;;;;;;;21.93;77.22;95246.66;4346936;32;20197;-59
2022/08/26 08:10:24;;;;;;;2.67;2.50;;;;;;;21.98;77.22;95252.91;4359410;32;20251;-59
2022/08/26 08:12:50;;;;;;;1.73;1.73;;;;;;;22.01;76.06;95250.28;4361019;32;20262;-59
2022/08/26 08:15:19;;;;;;;2.23;2.13;;;;;;;21.94;76.62;95244.75;4372141;32;20262;-59
2022/08/26 08:17:46;;;;;;;2.53;2.33;;;;;;;21.85;77.53;95247.72;4346694;32;20193;-58
2022/08/26 08:20:13;;;;;;;2.43;2.33;;;;;;;21.93;76.93;95248.59;4355144;32;20215;-59
2022/08/26 08:22:39;;;;;;;2.33;2.07;;;;;;;22.02;76.18;95246.41;4345837;32;20230;-59
2022/08/26 08:25:04;;;;;;;3.10;2.90;;;;;;;21.94;75.70;95248.22;4365959;32;20188;-59
2022/08/26 08:27:34;;;;;;;7.27;2.93;;;;;;;21.95;74.98;95246.28;4373091;32;20197;-59
2022/08/26 08:29:59;;;;;;;3.60;3.27;;;;;;;22.00;75.81;95247.91;4370173;32;20197;-59
2022/08/26 08:32:25;;;;;;;2.67;2.43;;;;;;;21.94;76.03;95245.50;4347827;32;20203;-58
2022/08/26 08:34:51;;;;;;;3.97;2.97;;;;;;;22.07;75.45;95248.00;4358219;32;20196;-58
2022/08/26 08:37:17;;;;;;;2.80;2.53;;;;;;;21.99;76.31;95243.63;4349750;32;20191;-58
2022/08/26 08:39:42;;;;;;;2.47;2.37;;;;;;;22.07;75.46;95248.00;4361843;32;20216;-59
2022/08/26 08:42:23;;;;;;;1.80;1.70;;;;;;;22.10;75.79;95249.97;4358019;32;20200;-59
2022/08/26 08:44:51;;;;;;;1.70;1.67;;;;;;;22.00;75.46;95253.31;4370860;32;23681;-58
2022/08/26 08:47:24;;;;;;;2.43;2.33;;;;;;;22.06;74.89;95254.53;4359219;32;20263;-59
2022/08/26 08:49:53;;;;;;;1.77;1.77;;;;;;;22.00;74.70;95247.91;4372559;32;20193;-59
2022/08/26 08:52:34;;;;;;;4.07;1.70;;;;;;;22.04;75.53;95246.81;4374493;32;21613;-59
2022/08/26 08:55:00;;;;;;;1.77;1.77;;;;;;;22.07;75.12;95242.59;4365068;32;20204;-59
2022/08/26 08:57:54;;;;;;;9.00;2.93;;;;;;;22.16;74.44;95243.09;4353981;32;20217;-58
2022/08/26 09:00:22;;;;;;;1.70;1.67;;;;;;;22.16;75.07;95249.28;4359045;32;20207;-59
2022/08/26 09:02:48;;;;;;;3.40;2.63;;;;;;;22.12;75.48;95253.09;4359210;32;20184;-59
2022/08/26 09:05:20;;;;;;;1.63;1.63;;;;;;;22.09;74.96;95243.00;4373050;32;20188;-59
2022/08/26 09:07:56;;;;;;;2.13;2.03;;;;;;;22.12;74.60;95251.16;4360891;32;20239;-56
2022/08/26 09:10:39;;;;;;;1.90;1.87;;;;;;;22.11;74.24;95249.59;4362358;32;20203;-58
2022/08/26 09:13:08;;;;;;;3.50;2.00;;;;;;;22.16;74.86;95245.78;4359112;32;20277;-59
2022/08/26 09:15:52;;;;;;;1.97;1.80;;;;;;;22.17;75.00;95245.44;4368679;32;20212;-59
2022/08/26 09:18:39;;;;;;;1.47;1.47;;;;;;;22.16;74.82;95246.56;4356923;32;20272;-58
2022/08/26 09:21:11;;;;;;;1.87;1.77;;;;;;;22.17;74.07;95250.06;4358207;32;20199;-59
2022/08/26 09:23:40;;;;;;;1.63;1.53;;;;;;;22.06;75.15;95243.75;4357753;32;20185;-59
2022/08/26 09:26:17;;;;;;;4.07;2.40;;;;;;;22.10;74.36;95245.34;4358099;32;20296;-59
2022/08/26 09:28:54;;;;;;;1.90;1.90;;;;;;;22.12;73.84;95239.56;4370276;32;20302;-59
2022/08/26 09:31:26;;;;;;;5.23;3.03;;;;;;;22.22;73.37;95247.03;4367206;32;20275;-58
2022/08/26 09:34:13;;;;;;;1.90;1.87;;;;;;;22.25;73.60;95254.38;4365390;32;20185;-58
2022/08/26 09:36:42;;;;;;;2.20;2.10;;;;;;;22.29;73.53;95245.16;4368803;32;20215;-59
2022/08/26 09:39:23;;;;;;;4.33;2.27;;;;;;;22.31;73.69;95244.81;4359936;32;20193;-58
2022/08/26 09:42:06;;;;;;;1.83;1.73;;;;;;;22.33;73.84;95244.44;4372422;32;20192;-59
2022/08/26 09:44:33;;;;;;;2.40;2.30;;;;;;;22.33;73.77;95242.50;4372325;32;20230;-59
2022/08/26 09:47:05;;;;;;;1.83;1.73;;;;;;;22.42;74.12;95234.12;4360796;32;20207;-59
2022/08/26 09:49:36;;;;;;;1.97;1.87;;;;;;;22.46;74.32;95234.91;4353268;32;20203;-59
2022/08/26 09:52:20;;;;;;;1.97;1.87;;;;;;;22.54;73.81;95228.44;4364319;32;20193;-59
2022/08/26 09:55:02;;;;;;;3.07;2.37;;;;;;;22.53;74.05;95227.66;4358451;32;20208;-59
2022/08/26 09:57:33;;;;;;;2.23;2.13;;;;;;;22.66;73.45;95224.66;4374288;32;20192;-59
2022/08/26 10:00:00;;;;;;;2.87;2.60;;;;;;;22.76;72.61;95215.88;4359416;32;20193;-59
2022/08/26 10:02:28;;;;;;;1.30;1.30;;;;;;;22.86;72.73;95223.34;4362331;32;20197;-59
2022/08/26 10:04:56;;;;;;;1.97;1.87;;;;;;;22.96;71.70;95211.81;4349039;32;20249;-59
2022/08/26 10:07:51;;;;;;;5.97;3.80;;;;;;;23.02;72.37;95204.91;4357607;32;20181;-59
2022/08/26 10:10:34;;;;;;;3.30;3.10;;;;;;;23.10;71.76;95206.50;4350102;32;20240;-59
2022/08/26 10:13:07;;;;;;;2.10;2.00;;;;;;;23.31;69.79;95195.81;4360870;32;20185;-59
2022/08/26 10:15:46;;;;;;;3.03;2.43;;;;;;;23.39;69.96;95193.16;4369066;32;20202;-58
2022/08/26 10:18:19;;;;;;;2.37;2.17;;;;;;;23.52;68.18;95194.41;4351091;32;20184;-59
2022/08/26 10:21:01;;;;;;;1.50;1.50;;;;;;;23.59;69.15;95189.03;4362859;32;20201;-59
2022/08/26 10:23:30;;;;;;;2.20;2.10;;;;;;;23.80;69.34;95188.34;4365127;32;20224;-59
2022/08/26 10:26:05;;;;;;;2.83;2.63;;;;;;;23.91;68.78;95179.09;4357533;32;20260;-59
2022/08/26 10:28:42;;;;;;;2.13;1.67;;;;;;;23.96;68.40;95177.94;4370393;32;20210;-59
2022/08/26 10:31:27;;;;;;;2.00;1.90;;;;;;;24.13;64.96;95174.50;4358461;32;20231;-59
2022/08/26 10:33:54;;;;;;;2.00;1.90;;;;;;;24.31;66.21;95169.97;4359637;32;20193;-59
2022/08/26 10:37:08;;;;;;;1.53;1.47;;;;;;;24.48;65.75;95167.66;4345625;32;20207;-59
2022/08/26 10:39:15;;;;;;;2.17;2.07;;;;;;;24.42;65.85;95167.25;4349344;32;20204;-59
2022/08/26 10:41:44;;;;;;;2.80;2.60;;;;;;;24.52;65.48;95163.00;4354331;32;20192;-59
2022/08/26 10:44:11;;;;;;;2.10;1.73;;;;;;;24.51;65.08;95161.44;4348143;32;20205;-59
2022/08/26 10:46:46;;;;;;;3.43;3.23;;;;;;;24.51;64.49;95156.81;4382476;32;20288;-59
2022/08/26 10:49:14;;;;;;;1.70;1.70;;;;;;;24.62;66.15;95152.16;4357413;32;20248;-59
2022/08/26 10:51:55;;;;;;;2.73;2.60;;;;;;;24.82;66.79;95154.47;4344314;32;20235;-59
2022/08/26 10:54:39;;;;;;;4.47;2.10;;;;;;;24.83;67.42;95148.66;4348813;32;20186;-59
2022/08/26 10:57:14;;;;;;;2.00;1.90;;;;;;;24.91;66.33;95144.78;4347906;32;20186;-59
2022/08/26 10:59:52;;;;;;;1.97;1.93;;;;;;;25.05;64.32;95141.28;4365185;32;20192;-59
2022/08/26 11:02:27;;;;;;;2.33;2.23;;;;;;;25.12;64.96;95141.28;4367715;32;20206;-59
2022/08/26 11:04:59;;;;;;;2.30;2.20;;;;;;;25.28;65.20;95136.19;4360811;32;20272;-59
2022/08/26 11:07:53;;;;;;;2.13;2.03;;;;;;;25.32;64.90;95139.69;4347603;32;20224;-59
2022/08/26 11:10:18;;;;;;;1.63;1.53;;;;;;;25.23;65.30;95133.88;4367115;32;20196;-59
2022/08/26 11:12:44;;;;;;;1.50;1.50;;;;;;;25.23;65.99;95133.09;4374744;32;20211;-59
2022/08/26 11:15:32;;;;;;;2.03;1.93;;;;;;;25.26;65.79;95119.50;4362221;32;20248;-59
2022/08/26 11:18:03;;;;;;;2.67;2.33;;;;;;;25.41;65.60;95119.47;4334054;32;20198;-59
2022/08/26 11:20:29;;;;;;;3.33;3.10;;;;;;;25.44;65.53;95118.69;4362235;32;20193;-64
2022/08/26 11:23:16;;;;;;;4.23;2.47;;;;;;;25.42;64.60;95121.78;4349177;32;20216;-58
2022/08/26 11:26:11;;;;;;;2.07;1.97;;;;;;;25.42;64.09;95112.88;4366249;32;20196;-58
2022/08/26 11:28:48;;;;;;;2.50;1.83;;;;;;;25.48;63.37;95116.72;4360191;32;20272;-58
2022/08/26 11:31:23;;;;;;;1.50;1.50;;;;;;;25.50;64.56;95112.47;4372194;32;20242;-58
2022/08/26 11:33:51;;;;;;;1.37;1.37;;;;;;;25.41;64.63;95114.03;4359308;32;20283;-58
2022/08/26 11:36:36;;;;;;;2.30;2.20;;;;;;;25.42;64.11;95118.28;4372281;32;20235;-59
2022/08/26 11:39:23;;;;;;;1.77;1.73;;;;;;;25.51;61.74;95113.22;4359481;32;20192;-59
2022/08/26 11:41:52;;;;;;;1.80;1.70;;;;;;;25.58;61.89;95119.38;4374552;32;20264;-58
2022/08/26 11:44:23;;;;;;;1.57;1.47;;;;;;;25.50;60.96;95112.47;4369072;32;20196;-58
2022/08/26 11:46:54;;;;;;;3.53;1.83;;;;;;;25.54;62.16;95112.44;4356228;32;20242;-59
2022/08/26 11:49:19;;;;;;;2.43;2.33;;;;;;;25.46;63.67;95105.47;4364678;32;20268;-58
2022/08/26 11:51:45;;;;;;;4.13;1.87;;;;;;;25.48;63.34;95097.72;4359226;32;20196;-60